East Aurora, New York
Current Conditions -  °F | °C
As of 4:54 AM on Sunday 23 Nov 2014 (Local Time) from KBUF Reporting Station
Broken Clouds Broken Clouds  
Wind Chill:   Ceiling: 4300
Heat Index:   Visibility: 10mi
Dew Point:   Wind: 9mph
Humidity: 71%   Direction: 220°SW
Pressure: 29.99"   Gusts: NA
Location:  42.77°N, 78.61°W
Report Text: KBUF 230954Z 22008KT 10SM FEW023 SCT033 BKN043 07/02 A2999 RMK AO2 SLP161 T00720022
Loading
Personal Weather Stations






























Interactive Weather Map New forecast layout! Learn more

10-Day Weather Forecast

Advertisements
Track Severe Weather on mobile